ΕΜΥ, Εθνική Μετεωρολογική Υπηρεσία - Δελτία Καιρού, Προγνώσεις

ΑΕΡΟΝΑΥΤΙΛΙΑ

GREEK AIRPORTS CODES

LGTS 201050Z 30007KT 9999 FEW018TCU SCT025 29/19 Q1011 NOSIG=

EUROPEAN AIRPORTS CODES

LFPO 201100Z 26009KT 9999 BKN026 SCT090 19/12 Q1016 NOSIG=